Tropical Cyclones
[Index]
Main Index Home Page Stock Weather Photos Extreme Storms Discussion Storm News and Storm Chasing Reports Tropical Cyclones / Hurricanes / Typhoons Weather Data and Links Wild Fires / Bushfires Weather Observation Techniques Weather Picture Catalogue Tornado Pictures and Reports Stock Video Footage and DVDs for sale
Season 1978-1979 Tropical Cyclone IDYLLE Track Map
Season 1978-1979 Summaries: [BoM-AU] [JTWC-AU] [JTWC-SIO] [JTWC-SPAC] [JTWC-SH]
<<- Previous TC | BoM 1978-1979 Season | Next TC ->>

click for intensity scale information  Lat/long Grid: Show Hide

 Date Labels: Show Hide

Bureau of Meteorology Tropical Cyclone Data

Name: IDYLLE
Number: 592 / 197879_09

06 Apr 1979 00:00 UTC to 20 Apr 1979 00:00 UTC

    date/time    lat    long    hPa   cat  kts
1979-04-06 00   11.7    75.2    995    1                
1979-04-06 06   12.6    74.2    993    1                
1979-04-06 12   13.2    73.3    991    1                
1979-04-06 18   13.7    72.6    990    1                
1979-04-07 00   13.9    71.9    988    1                
1979-04-07 06   13.6    71.2    986    1                
1979-04-07 12   13.2    70.4    984    2                
1979-04-07 18   13.0    70.0    982    2                
1979-04-08 00   13.2    69.6    979    2                
1979-04-08 06   13.5    69.4    976    2                
1979-04-08 12   13.8    69.2    974    2                
1979-04-08 18   14.1    69.3    971    2                
1979-04-09 00   14.3    69.4    969    3                
1979-04-09 06   14.7    69.6    967    3                
1979-04-09 12   15.0    69.7    965    3                
1979-04-09 18   15.7    70.0    962    3                
1979-04-10 00   16.2    70.4    960    3                
1979-04-10 06   16.7    71.1    958    3                
1979-04-10 12   17.0    71.7    956    3                
1979-04-10 18   17.3    72.4    955    4                
1979-04-11 00   17.4    73.2    953    4                
1979-04-11 06   17.3    74.2    951    4                
1979-04-11 12   17.6    75.3    949    4                
1979-04-11 18   18.0    76.0    946    4                
1979-04-12 00   18.2    76.7    945    4                
1979-04-12 06   18.5    77.3    945    4                
1979-04-12 12   18.9    78.0    946    4                
1979-04-12 18   19.3    79.0    948    4                
1979-04-13 00   20.1    80.3    950    4                
1979-04-13 06   20.8    82.0    952    4                
1979-04-13 12   21.3    84.0    955    4                
1979-04-13 18   21.8    85.6    957    3                
1979-04-14 00   22.0    86.9    960    3                
1979-04-14 06   22.2    88.5    965    3                
1979-04-14 12   22.6    90.4    970    3                
1979-04-14 18   22.8    92.5    975    2                
1979-04-15 00   23.2    94.9    980    2                
1979-04-15 06   24.4    97.0    984    2                
1979-04-15 12   25.8    99.0    987    1                
1979-04-15 18   27.4   100.6    990    1                
1979-04-16 00   29.0   101.8    992    1                
1979-04-16 06   30.5   102.2    993    1                
1979-04-16 12   31.6   102.3    994    1                
1979-04-16 18   32.6   102.6    995    1                
1979-04-17 00   33.6   103.0    995    1                
1979-04-17 06   34.0   103.8    994    1                
1979-04-17 12   34.0   105.9    991    1                
1979-04-17 18   34.0   107.2    988    1                
1979-04-18 00   34.1   108.3    985    2                
1979-04-18 06   34.2   111.1    986    1                
1979-04-18 12   34.8   114.2    987    1                
1979-04-18 18   35.3   117.3    989    1                
1979-04-19 00   35.8   120.4    992    1                
1979-04-19 06   35.9   123.7    993    1                
1979-04-19 12   36.0   127.0    994    1                
1979-04-19 18   36.5   129.9    995    1                
1979-04-20 00   37.5   133.0    995    1                
Winds are 10-min average.

Tropical cyclone tracks developed by Michael Bath using data from the Bureau of Meteorology and Google Maps.


[Australian Severe Weather index] [Copyright Notice] [Email Contacts] [Search This Site] [Privacy Policy]
Document: tropical_cyclone_idylle.htm Updated: 30 May 2013